createdAt,value
2023-02-14T00:02:12.885Z,-1.00
2023-02-14T00:04:44.139Z,-0.80
2023-02-14T00:07:12.098Z,-0.70
2023-02-14T00:09:39.885Z,-0.80
2023-02-14T00:12:07.873Z,-0.80
2023-02-14T00:14:53.314Z,-0.10
2023-02-14T00:17:22.484Z,-0.30
2023-02-14T00:19:50.461Z,-0.60
2023-02-14T00:22:18.285Z,-0.60
2023-02-14T00:24:46.402Z,-0.70
2023-02-14T00:27:14.961Z,-0.90
2023-02-14T00:29:42.755Z,-1.00
2023-02-14T00:32:10.673Z,-0.80
2023-02-14T00:34:41.211Z,-1.00
2023-02-14T00:37:09.053Z,-1.20
2023-02-14T00:39:36.862Z,-1.40
2023-02-14T00:42:04.826Z,-1.40
2023-02-14T00:44:32.612Z,-1.50
2023-02-14T00:47:00.452Z,-1.50
2023-02-14T00:49:28.277Z,-1.40
2023-02-14T00:51:57.430Z,-1.40
2023-02-14T00:54:25.289Z,-1.40
2023-02-14T00:56:53.151Z,-1.30
2023-02-14T00:59:20.942Z,-1.30
2023-02-14T01:01:48.765Z,-1.30
2023-02-14T01:04:16.590Z,-1.20
2023-02-14T01:06:44.706Z,-1.30
2023-02-14T01:09:13.853Z,-1.30
2023-02-14T01:11:41.733Z,-1.10
2023-02-14T01:14:09.541Z,-1.20
2023-02-14T01:16:39.141Z,-1.30
2023-02-14T01:19:09.072Z,-1.40
2023-02-14T01:21:36.852Z,-1.40
2023-02-14T01:24:05.894Z,-1.50
2023-02-14T01:26:35.336Z,-1.50
2023-02-14T01:29:03.236Z,-1.40
2023-02-14T01:31:32.124Z,-1.40
2023-02-14T01:34:00.246Z,-1.30
2023-02-14T01:36:28.945Z,-1.40
2023-02-14T01:38:57.528Z,-1.40
2023-02-14T01:41:25.900Z,-1.30
2023-02-14T01:43:57.354Z,-1.20
2023-02-14T01:46:26.008Z,-1.00
2023-02-14T01:48:54.711Z,-0.80
2023-02-14T01:51:22.514Z,-0.90
2023-02-14T01:53:50.394Z,-1.00
2023-02-14T01:56:21.172Z,-1.10
2023-02-14T01:58:49.349Z,-1.10
2023-02-14T02:01:18.652Z,-1.20
2023-02-14T02:03:50.040Z,-1.30
2023-02-14T02:06:18.888Z,-1.30
2023-02-14T02:08:49.970Z,-1.10
2023-02-14T02:11:17.786Z,-1.30
2023-02-14T02:13:45.590Z,-1.30
2023-02-14T02:16:31.442Z,-1.20
2023-02-14T02:19:10.338Z,-1.30
2023-02-14T02:21:54.830Z,-1.40
2023-02-14T02:24:29.673Z,-1.30
2023-02-14T02:27:24.401Z,-1.40
2023-02-14T02:30:18.988Z,-1.40
2023-02-14T02:33:29.161Z,-1.50
2023-02-14T02:36:09.055Z,-1.30
2023-02-14T02:39:14.668Z,-1.60
2023-02-14T02:45:12.361Z,-1.90
2023-02-14T02:51:07.075Z,-1.80
2023-02-14T02:53:41.291Z,-1.80
2023-02-14T02:56:50.630Z,-1.80
2023-02-14T02:59:21.084Z,-1.80
2023-02-14T03:01:58.404Z,-2.00
2023-02-14T03:04:44.682Z,-2.00
2023-02-14T03:10:38.764Z,-2.10
2023-02-14T03:13:43.790Z,-2.30
2023-02-14T03:16:34.902Z,-2.30
2023-02-14T03:19:36.353Z,-2.10
2023-02-14T03:22:16.100Z,-2.20
2023-02-14T03:24:47.463Z,-2.30
2023-02-14T03:30:06.811Z,-2.10
2023-02-14T03:33:14.388Z,-2.20
2023-02-14T03:35:46.913Z,-2.00
2023-02-14T03:38:16.306Z,-2.20
2023-02-14T03:40:54.843Z,-2.00
2023-02-14T03:43:26.875Z,-1.70
2023-02-14T03:46:00.063Z,-1.80
2023-02-14T03:48:28.678Z,-2.00
2023-02-14T03:50:57.487Z,-1.80
2023-02-14T03:53:27.591Z,-1.70
2023-02-14T03:55:59.832Z,-2.10
2023-02-14T03:58:31.921Z,-2.10
2023-02-14T04:01:02.127Z,-2.20
2023-02-14T04:03:42.417Z,-2.10
2023-02-14T04:06:11.294Z,-2.20
2023-02-14T04:08:39.758Z,-2.30
2023-02-14T04:11:14.196Z,-2.30
2023-02-14T04:17:02.054Z,-2.30
2023-02-14T04:19:31.168Z,-2.40
2023-02-14T04:22:02.195Z,-2.40
2023-02-14T04:24:31.178Z,-2.10
2023-02-14T04:27:11.361Z,-2.00
2023-02-14T04:29:43.295Z,-2.00
2023-02-14T04:32:13.201Z,-2.10
2023-02-14T04:34:44.561Z,-2.40
2023-02-14T04:37:13.230Z,-2.40
2023-02-14T04:39:42.136Z,-2.30
2023-02-14T04:42:10.871Z,-2.40
2023-02-14T04:44:40.630Z,-2.30
2023-02-14T04:47:15.565Z,-2.30
2023-02-14T04:49:43.958Z,-2.40
2023-02-14T04:52:13.450Z,-2.30
2023-02-14T04:55:02.732Z,-2.30
2023-02-14T04:57:31.446Z,-2.20
2023-02-14T05:00:01.625Z,-2.30
2023-02-14T05:03:13.118Z,-2.30
2023-02-14T05:05:44.013Z,-2.20
2023-02-14T05:08:12.446Z,-2.30
2023-02-14T05:10:41.019Z,-2.20
2023-02-14T05:13:09.410Z,-2.60
2023-02-14T05:15:39.410Z,-2.60
2023-02-14T05:18:07.710Z,-2.40
2023-02-14T05:20:36.167Z,-2.50
2023-02-14T05:23:05.349Z,-2.60
2023-02-14T05:25:33.895Z,-2.60
2023-02-14T05:28:02.376Z,-2.80
2023-02-14T05:30:30.895Z,-2.80
2023-02-14T05:33:01.468Z,-2.70
2023-02-14T05:38:18.700Z,-2.80
2023-02-14T05:40:47.223Z,-2.60
2023-02-14T05:43:15.462Z,-2.60
2023-02-14T05:45:47.029Z,-2.50
2023-02-14T05:48:16.930Z,-2.60
2023-02-14T05:50:46.186Z,-2.70
2023-02-14T05:53:15.844Z,-2.80
2023-02-14T05:59:35.913Z,-2.70
2023-02-14T06:06:15.835Z,-2.70
2023-02-14T06:08:44.425Z,-2.90
2023-02-14T06:11:12.798Z,-2.90
2023-02-14T06:13:41.613Z,-2.80
2023-02-14T06:16:09.968Z,-2.70
2023-02-14T06:18:38.209Z,-2.80
2023-02-14T06:21:07.037Z,-2.80
2023-02-14T06:23:36.864Z,-2.70
2023-02-14T06:26:05.270Z,-2.70
2023-02-14T06:28:33.516Z,-2.70
2023-02-14T06:31:02.208Z,-2.60
2023-02-14T06:33:30.914Z,-2.60
2023-02-14T06:36:02.435Z,-2.60
2023-02-14T06:38:30.920Z,-2.60
2023-02-14T06:41:06.182Z,-2.70
2023-02-14T06:43:34.636Z,-2.70
2023-02-14T06:46:03.706Z,-2.90
2023-02-14T06:48:32.098Z,-2.90
2023-02-14T06:51:00.847Z,-2.70
2023-02-14T06:53:29.584Z,-2.70
2023-02-14T06:55:58.312Z,-2.40
2023-02-14T06:58:28.483Z,-2.60
2023-02-14T07:00:56.568Z,-1.50
2023-02-14T07:03:24.873Z,-2.20
2023-02-14T07:05:53.429Z,-2.40
2023-02-14T07:08:21.909Z,-2.70
2023-02-14T07:10:50.110Z,-2.50
2023-02-14T07:13:18.462Z,-2.60
2023-02-14T07:15:48.768Z,-2.50
2023-02-14T07:18:17.111Z,-2.70
2023-02-14T07:20:45.653Z,-2.60
2023-02-14T07:23:13.841Z,-2.40
2023-02-14T07:25:42.046Z,-2.30
2023-02-14T07:28:10.262Z,-2.60
2023-02-14T07:30:38.476Z,-2.70
2023-02-14T07:33:14.303Z,-2.70
2023-02-14T07:35:42.616Z,-2.60
2023-02-14T07:38:10.652Z,-2.50
2023-02-14T07:40:39.078Z,-2.50
2023-02-14T07:43:13.501Z,-2.40
2023-02-14T07:45:41.573Z,-2.30
2023-02-14T07:48:11.382Z,-2.40
2023-02-14T07:50:39.510Z,-2.40
2023-02-14T07:53:08.719Z,-2.20
2023-02-14T07:55:36.987Z,-2.20
2023-02-14T07:58:05.213Z,-1.90
2023-02-14T08:00:33.695Z,-1.30
2023-02-14T08:03:01.860Z,-0.70
2023-02-14T08:05:31.569Z,-0.40
2023-02-14T08:07:59.695Z,0.00
2023-02-14T08:10:38.258Z,0.40
2023-02-14T08:13:06.527Z,0.60
2023-02-14T08:16:02.758Z,1.10
2023-02-14T08:18:30.942Z,1.50
2023-02-14T08:21:00.771Z,1.80
2023-02-14T08:24:06.934Z,2.00
2023-02-14T08:26:38.323Z,2.20
2023-02-14T08:29:06.333Z,2.60
2023-02-14T08:31:36.237Z,2.60
2023-02-14T08:34:05.110Z,2.90
2023-02-14T08:36:35.372Z,2.80
2023-02-14T08:39:04.356Z,3.10
2023-02-14T08:42:19.227Z,4.50
2023-02-14T08:44:47.503Z,5.40
2023-02-14T08:47:15.676Z,6.30
2023-02-14T08:52:27.453Z,4.70
2023-02-14T08:54:55.746Z,4.70
2023-02-14T08:57:24.008Z,4.60
2023-02-14T08:59:52.471Z,4.80
2023-02-14T09:02:20.896Z,5.00
2023-02-14T09:04:48.943Z,4.90
2023-02-14T09:07:17.115Z,5.10
2023-02-14T09:09:49.590Z,5.30
2023-02-14T09:12:17.970Z,5.70
2023-02-14T09:14:46.587Z,5.50
2023-02-14T09:17:15.359Z,5.50
2023-02-14T09:19:49.499Z,6.00
2023-02-14T09:22:17.733Z,6.50
2023-02-14T09:24:47.570Z,6.50
2023-02-14T09:27:15.825Z,6.40
2023-02-14T09:29:44.296Z,6.90
2023-02-14T09:32:12.448Z,7.00
2023-02-14T09:34:58.374Z,7.00
2023-02-14T09:37:26.781Z,6.40
2023-02-14T09:39:56.358Z,6.80
2023-02-14T09:42:39.108Z,7.10
2023-02-14T09:45:10.422Z,6.70
2023-02-14T09:47:41.303Z,6.40
2023-02-14T09:50:18.213Z,7.20
2023-02-14T09:53:02.928Z,7.40
2023-02-14T09:59:09.104Z,7.80
2023-02-14T10:01:39.797Z,7.90
2023-02-14T10:07:27.672Z,8.40
2023-02-14T10:09:59.181Z,8.60
2023-02-14T10:12:31.104Z,8.60
2023-02-14T10:15:02.263Z,8.40
2023-02-14T10:17:36.017Z,9.00
2023-02-14T10:20:06.063Z,8.80
2023-02-14T10:22:49.702Z,9.40
2023-02-14T10:25:19.669Z,9.70
2023-02-14T10:27:49.767Z,9.90
2023-02-14T10:30:19.733Z,10.30
2023-02-14T10:32:49.315Z,10.20
2023-02-14T10:35:38.734Z,10.30
2023-02-14T10:38:11.089Z,10.50
2023-02-14T10:40:46.880Z,10.60
2023-02-14T10:43:21.624Z,10.50
2023-02-14T10:45:55.341Z,11.10
2023-02-14T10:48:28.184Z,11.00
2023-02-14T10:50:59.186Z,11.40
2023-02-14T10:53:29.342Z,11.50
2023-02-14T10:55:58.625Z,11.50
2023-02-14T10:58:28.817Z,11.70
2023-02-14T11:01:00.200Z,11.70
2023-02-14T11:03:33.902Z,11.30
2023-02-14T11:06:02.337Z,11.50
2023-02-14T11:08:32.934Z,11.60
2023-02-14T11:11:02.850Z,11.60
2023-02-14T11:13:34.449Z,11.60
2023-02-14T11:16:03.998Z,11.60
2023-02-14T11:18:36.911Z,11.50
2023-02-14T11:21:09.743Z,11.60
2023-02-14T11:23:39.948Z,12.10
2023-02-14T11:26:13.644Z,12.30
2023-02-14T11:28:50.466Z,12.40
2023-02-14T11:31:26.736Z,12.00
2023-02-14T11:33:58.875Z,12.30
2023-02-14T11:36:30.349Z,12.50
2023-02-14T11:39:08.733Z,12.50
2023-02-14T11:41:50.465Z,13.00
2023-02-14T11:44:23.376Z,12.80
2023-02-14T11:46:53.973Z,12.50
2023-02-14T11:49:33.333Z,13.00
2023-02-14T11:52:02.954Z,13.10
2023-02-14T11:54:34.505Z,13.20
2023-02-14T11:57:07.530Z,13.50
2023-02-14T11:59:39.128Z,13.40
2023-02-14T12:02:18.745Z,13.40
2023-02-14T12:04:47.010Z,13.60
2023-02-14T12:07:17.226Z,13.70
2023-02-14T12:09:45.762Z,13.50
2023-02-14T12:12:18.729Z,14.00
2023-02-14T12:14:48.406Z,14.20
2023-02-14T12:17:22.577Z,14.00
2023-02-14T12:19:51.784Z,14.00
2023-02-14T12:22:20.613Z,14.10
2023-02-14T12:24:52.095Z,14.30
2023-02-14T12:27:21.391Z,14.30
2023-02-14T12:29:53.751Z,14.20
2023-02-14T12:32:23.038Z,14.30
2023-02-14T12:34:52.849Z,14.20
2023-02-14T12:37:38.810Z,14.40
2023-02-14T12:40:12.098Z,14.60
2023-02-14T12:42:50.050Z,14.40
2023-02-14T12:45:22.608Z,14.40
2023-02-14T12:47:53.569Z,14.60
2023-02-14T12:50:36.390Z,14.70
2023-02-14T12:53:26.830Z,14.60
2023-02-14T12:55:59.749Z,14.90
2023-02-14T12:58:33.510Z,14.80
2023-02-14T13:01:10.371Z,14.70
2023-02-14T13:04:01.195Z,14.60
2023-02-14T13:06:32.164Z,14.80
2023-02-14T13:09:07.843Z,14.70
2023-02-14T13:11:38.431Z,15.20
2023-02-14T13:14:11.377Z,15.00
2023-02-14T13:16:42.428Z,15.10
2023-02-14T13:19:16.213Z,14.80
2023-02-14T13:21:44.349Z,15.10
2023-02-14T13:24:18.269Z,15.10
2023-02-14T13:26:48.689Z,15.00
2023-02-14T13:29:19.465Z,14.80
2023-02-14T13:31:48.923Z,14.80
2023-02-14T13:34:28.100Z,14.90
2023-02-14T13:36:56.444Z,14.70
2023-02-14T13:39:27.237Z,14.90
2023-02-14T13:41:55.325Z,15.10
2023-02-14T13:44:44.146Z,15.00
2023-02-14T13:47:19.040Z,15.10
2023-02-14T13:49:48.748Z,15.20
2023-02-14T13:52:17.395Z,14.80
2023-02-14T13:54:46.552Z,14.80
2023-02-14T13:57:29.467Z,15.00
2023-02-14T14:00:40.317Z,14.80
2023-02-14T14:03:13.944Z,14.90
2023-02-14T14:05:49.696Z,14.80
2023-02-14T14:08:46.616Z,14.80
2023-02-14T14:12:01.989Z,14.50
2023-02-14T14:14:39.723Z,14.00
2023-02-14T14:17:21.826Z,14.30
2023-02-14T14:19:51.301Z,14.30
2023-02-14T14:22:19.909Z,14.50
2023-02-14T14:24:55.587Z,14.30
2023-02-14T14:27:24.903Z,14.20
2023-02-14T14:29:54.440Z,14.10
2023-02-14T14:32:27.051Z,14.10
2023-02-14T14:34:57.268Z,14.00
2023-02-14T14:37:26.399Z,13.90
2023-02-14T14:39:55.017Z,13.80
2023-02-14T14:42:23.914Z,13.40
2023-02-14T14:44:52.499Z,13.40
2023-02-14T14:47:21.777Z,13.20
2023-02-14T14:49:49.672Z,13.30
2023-02-14T14:52:28.956Z,13.30
2023-02-14T14:54:56.817Z,13.20
2023-02-14T14:57:24.786Z,13.10
2023-02-14T15:00:07.269Z,13.20
2023-02-14T15:02:35.164Z,13.20
2023-02-14T15:05:14.699Z,13.00
2023-02-14T15:07:44.034Z,13.20
2023-02-14T15:10:23.151Z,12.80
2023-02-14T15:13:09.707Z,13.10
2023-02-14T15:15:38.060Z,13.10
2023-02-14T15:18:07.131Z,13.00
2023-02-14T15:20:36.829Z,13.10
2023-02-14T15:23:06.531Z,12.50
2023-02-14T15:25:35.659Z,12.30
2023-02-14T15:28:03.620Z,12.20
2023-02-14T15:30:34.114Z,12.10
2023-02-14T15:33:02.395Z,12.10
2023-02-14T15:35:31.987Z,11.90
2023-02-14T15:38:02.523Z,11.70
2023-02-14T15:40:32.808Z,11.70
2023-02-14T15:43:03.884Z,11.70
2023-02-14T15:45:32.142Z,11.60
2023-02-14T15:48:00.916Z,11.50
2023-02-14T15:50:30.798Z,11.50
2023-02-14T15:53:03.887Z,11.40
2023-02-14T15:55:33.221Z,11.20
2023-02-14T15:58:02.777Z,11.00
2023-02-14T16:00:31.686Z,10.90
2023-02-14T16:03:02.691Z,10.60
2023-02-14T16:05:30.597Z,10.50
2023-02-14T16:07:59.774Z,10.40
2023-02-14T16:10:29.216Z,10.40
2023-02-14T16:13:03.080Z,10.50
2023-02-14T16:15:31.815Z,10.20
2023-02-14T16:18:00.950Z,10.00
2023-02-14T16:20:31.397Z,9.90
2023-02-14T16:23:19.059Z,9.60
2023-02-14T16:25:46.988Z,9.40
2023-02-14T16:28:16.378Z,9.40
2023-02-14T16:30:45.165Z,9.40
2023-02-14T16:33:15.116Z,9.40
2023-02-14T16:35:43.030Z,9.30
2023-02-14T16:38:15.918Z,9.30
2023-02-14T16:40:44.742Z,9.20
2023-02-14T16:43:14.106Z,9.00
2023-02-14T16:45:43.372Z,8.90
2023-02-14T16:48:11.266Z,8.90
2023-02-14T16:50:40.252Z,8.90
2023-02-14T16:53:09.945Z,8.90
2023-02-14T16:55:37.854Z,8.80
2023-02-14T16:58:05.838Z,8.70
2023-02-14T17:00:33.753Z,8.60
2023-02-14T17:03:13.176Z,8.50
2023-02-14T17:05:41.137Z,8.40
2023-02-14T17:08:09.526Z,8.30
2023-02-14T17:10:37.641Z,8.80
2023-02-14T17:13:08.950Z,8.90
2023-02-14T17:15:37.164Z,8.70
2023-02-14T17:18:10.801Z,8.40
2023-02-14T17:20:38.953Z,8.20
2023-02-14T17:23:06.913Z,8.00
2023-02-14T17:28:16.852Z,7.70
2023-02-14T17:34:33.731Z,7.40
2023-02-14T17:37:02.873Z,7.10
2023-02-14T17:39:30.837Z,6.90
2023-02-14T17:41:59.343Z,6.80
2023-02-14T17:44:29.572Z,6.70
2023-02-14T17:46:58.007Z,6.60
2023-02-14T17:49:25.940Z,6.50
2023-02-14T17:51:57.984Z,6.40
2023-02-14T17:54:25.804Z,6.30
2023-02-14T17:56:53.627Z,6.20
2023-02-14T17:59:21.435Z,6.10
2023-02-14T18:01:49.312Z,6.00
2023-02-14T18:04:17.146Z,5.90
2023-02-14T18:06:44.975Z,5.80
2023-02-14T18:09:14.176Z,5.70
2023-02-14T18:11:44.279Z,5.70
2023-02-14T18:14:12.124Z,5.50
2023-02-14T18:16:40.259Z,5.50
2023-02-14T18:19:15.553Z,5.50
2023-02-14T18:21:44.179Z,5.40
2023-02-14T18:24:12.257Z,5.40
2023-02-14T18:26:42.097Z,5.30
2023-02-14T18:29:10.761Z,5.20
2023-02-14T18:31:39.478Z,5.20
2023-02-14T18:34:10.613Z,5.10
2023-02-14T18:36:39.699Z,5.00
2023-02-14T18:39:07.548Z,5.00
2023-02-14T18:41:35.496Z,4.80
2023-02-14T18:44:05.181Z,4.80
2023-02-14T18:46:35.536Z,4.40
2023-02-14T18:49:04.252Z,4.30
2023-02-14T18:51:33.246Z,4.60
2023-02-14T18:54:04.519Z,4.60
2023-02-14T18:56:35.627Z,4.40
2023-02-14T18:59:05.676Z,4.30
2023-02-14T19:01:36.723Z,4.30
2023-02-14T19:04:05.963Z,4.20
2023-02-14T19:06:34.838Z,4.00
2023-02-14T19:09:03.474Z,3.90
2023-02-14T19:11:32.713Z,3.80
2023-02-14T19:14:01.337Z,3.80
2023-02-14T19:16:32.188Z,3.80
2023-02-14T19:19:00.805Z,3.70
2023-02-14T19:21:30.617Z,3.70
2023-02-14T19:23:58.449Z,3.80
2023-02-14T19:26:27.699Z,3.60
2023-02-14T19:28:56.758Z,3.40
2023-02-14T19:31:24.953Z,3.30
2023-02-14T19:33:54.522Z,3.30
2023-02-14T19:36:23.065Z,3.80
2023-02-14T19:38:51.763Z,3.90
2023-02-14T19:41:21.349Z,3.60
2023-02-14T19:43:51.352Z,3.50
2023-02-14T19:46:20.115Z,3.30
2023-02-14T19:48:48.644Z,3.50
2023-02-14T19:51:19.580Z,2.90
2023-02-14T19:53:47.410Z,2.70
2023-02-14T19:56:19.533Z,2.70
2023-02-14T19:58:47.647Z,2.60
2023-02-14T20:01:24.145Z,2.40
2023-02-14T20:03:52.333Z,2.50
2023-02-14T20:06:21.658Z,2.60
2023-02-14T20:08:49.654Z,2.60
2023-02-14T20:11:28.221Z,2.60
2023-02-14T20:13:56.050Z,2.50
2023-02-14T20:16:27.334Z,2.30
2023-02-14T20:18:55.191Z,2.20
2023-02-14T20:21:27.927Z,2.10
2023-02-14T20:23:55.859Z,2.20
2023-02-14T20:26:26.637Z,2.30
2023-02-14T20:28:54.845Z,2.40
2023-02-14T20:31:25.203Z,2.30
2023-02-14T20:33:55.257Z,2.10
2023-02-14T20:36:24.461Z,1.80
2023-02-14T20:38:55.499Z,1.80
2023-02-14T20:41:23.347Z,1.80
2023-02-14T20:43:51.193Z,1.90
2023-02-14T20:46:19.129Z,1.90
2023-02-14T20:48:46.963Z,1.80
2023-02-14T20:51:16.146Z,1.80
2023-02-14T20:53:45.498Z,2.00
2023-02-14T20:56:13.741Z,1.80
2023-02-14T20:58:41.887Z,1.70
2023-02-14T21:01:10.638Z,1.70
2023-02-14T21:03:38.559Z,1.80
2023-02-14T21:06:07.360Z,1.70
2023-02-14T21:08:35.173Z,1.60
2023-02-14T21:11:04.328Z,1.40
2023-02-14T21:13:32.204Z,1.30
2023-02-14T21:16:03.011Z,1.20
2023-02-14T21:18:31.066Z,1.20
2023-02-14T21:21:04.888Z,1.30
2023-02-14T21:23:32.722Z,1.30
2023-02-14T21:26:04.940Z,1.20
2023-02-14T21:28:32.783Z,1.10
2023-02-14T21:31:04.585Z,1.10
2023-02-14T21:33:33.378Z,0.90
2023-02-14T21:36:06.972Z,0.90
2023-02-14T21:38:34.930Z,0.80
2023-02-14T21:41:04.821Z,0.90
2023-02-14T21:43:36.029Z,0.80
2023-02-14T21:46:05.101Z,0.70
2023-02-14T21:48:50.437Z,0.80
2023-02-14T21:51:18.409Z,0.80
2023-02-14T21:53:46.211Z,0.70
2023-02-14T21:56:17.940Z,0.80
2023-02-14T21:58:47.607Z,0.80
2023-02-14T22:01:16.265Z,0.90
2023-02-14T22:03:44.112Z,0.70
2023-02-14T22:06:13.090Z,0.50
2023-02-14T22:08:40.911Z,0.70
2023-02-14T22:11:09.103Z,0.70
2023-02-14T22:13:36.917Z,0.50
2023-02-14T22:16:07.204Z,0.60
2023-02-14T22:18:35.145Z,0.60
2023-02-14T22:21:03.588Z,0.50
2023-02-14T22:23:31.881Z,0.50
2023-02-14T22:26:09.666Z,0.50
2023-02-14T22:28:37.500Z,0.30
2023-02-14T22:31:06.968Z,0.40
2023-02-14T22:33:36.986Z,0.40
2023-02-14T22:36:06.358Z,0.40
2023-02-14T22:38:34.172Z,0.50
2023-02-14T22:41:06.035Z,0.90
2023-02-14T22:43:34.185Z,0.50
2023-02-14T22:46:04.418Z,0.30
2023-02-14T22:48:33.856Z,0.20
2023-02-14T22:51:09.142Z,0.10
2023-02-14T22:53:37.131Z,0.20
2023-02-14T22:56:12.515Z,0.20
2023-02-14T22:58:40.630Z,0.20
2023-02-14T23:01:08.467Z,0.30
2023-02-14T23:03:37.683Z,0.20
2023-02-14T23:06:05.752Z,0.20
2023-02-14T23:08:33.526Z,0.10
2023-02-14T23:11:07.398Z,0.00
2023-02-14T23:13:52.946Z,0.10
2023-02-14T23:16:38.544Z,-0.10
2023-02-14T23:19:27.309Z,-0.10
2023-02-14T23:21:58.064Z,0.00
2023-02-14T23:24:25.861Z,-0.10
2023-02-14T23:26:54.949Z,-0.10
2023-02-14T23:29:22.810Z,0.00
2023-02-14T23:31:50.763Z,-0.10
2023-02-14T23:34:20.080Z,-0.10
2023-02-14T23:36:48.044Z,-0.10
2023-02-14T23:39:15.866Z,-0.30
2023-02-14T23:41:49.895Z,-0.30
2023-02-14T23:44:19.061Z,-0.40
2023-02-14T23:46:47.408Z,-0.40
2023-02-14T23:49:15.304Z,-0.40
2023-02-14T23:51:44.723Z,-0.40
2023-02-14T23:54:12.527Z,-0.50
2023-02-14T23:56:40.646Z,-0.40
2023-02-14T23:59:08.696Z,-0.50
